Aviation Digital Data Service (ADDS)

Output produced by METARs form (1054 UTC 19 February 2019)
found at http://www.aviationweather.gov/metar/data/
 
Forecast for: LIPH (TREVISO(CIV/IT-A, IT)
Text: TAF LIPH 190500Z 1906/2006 VRB05KT 0100 FG OVC001
Forecast period: 0600 to 1200 UTC 19 February 2019
Forecast type: FROM: standard forecast or significant change
Winds: variable direction winds at 6 MPH (5 knots; 2.6 m/s)
Visibility: 0.06 miles (0.10 km)
Ceiling: 100 feet AGL
Clouds: overcast cloud deck at 100 feet AGL
Weather: FG  (fog)
Text: BECMG 1912/1915 2000 BR SCT015
Forecast period: 1200 to 1800 UTC 19 February 2019
Forecast type: BECOMING: Conditions expected to become as follows by 1500 UTC 19 February 2019
Winds: variable direction winds at 6 MPH (5 knots; 2.6 m/s)
Visibility: 1.24 miles (2.00 km)
Ceiling: at least 12,000 feet AGL
Clouds: scattered clouds at 1500 feet AGL
Weather: BR  (mist)
Text: BECMG 1918/1920 0400 FG
Forecast period: 1800 UTC 19 February 2019 to 0600 UTC 20 February 2019
Forecast type: BECOMING: Conditions expected to become as follows by 2000 UTC 19 February 2019
Winds: variable direction winds at 6 MPH (5 knots; 2.6 m/s)
Visibility: 0.25 miles (0.40 km)
Ceiling: at least 12,000 feet AGL
Clouds: scattered clouds at 1500 feet AGL
Weather: FG  (fog)